Terminal Aerodrome Forecast
Issued by NWS El Paso, TX

Home | Current Version | Previous Version | Text Only | Print | Product List | Glossary On
Versions: 1 2 3 4 5 6 7 8 9 10 11 12 13 14 15
000
FTUS44 KEPZ 262337
TAFELP
TAF
KELP 262337Z 2700/2724 28017G27KT P6SM FEW250
     FM270200 29011KT P6SM FEW250
     FM271500 19008KT P6SM FEW200
     FM272000 24014KT P6SM SCT250=

USA.gov is the U.S. government's official web portal to all federal, state and local government web resources and services.